Time;durP1;ratioP1;P1;durP2;ratioP2;P2;SDS_P1;SDS_P2;PMS_P1;PMS_P2;Temp;Humidity;BMP_temperature;BMP_pressure;BME280_temperature;BME280_humidity;BME280_pressure;Samples;Min_cycle;Max_cycle;Signal;HPM_P1;HPM_P2
2022/06/04 00:00:58;;;;;;;6.00;5.50;;;;;;;15.16;100.00;97087.53;4911764;29;20530;-54
2022/06/04 00:03:28;;;;;;;5.93;5.43;;;;;;;15.14;100.00;97086.13;4915274;29;20714;-54
2022/06/04 00:05:57;;;;;;;5.57;5.10;;;;;;;15.15;100.00;97093.91;4886201;29;20502;-54
2022/06/04 00:08:26;;;;;;;5.70;5.30;;;;;;;15.13;100.00;97079.94;4911801;29;20336;-53
2022/06/04 00:16:27;;;;;;;5.70;5.30;;;;;;;15.02;100.00;97094.81;4908731;29;20331;-56
2022/06/04 00:18:57;;;;;;;5.47;5.03;;;;;;;15.04;100.00;97098.09;4914308;29;20275;-58
2022/06/04 00:21:26;;;;;;;5.37;5.07;;;;;;;15.07;100.00;97088.00;4880799;29;20508;-53
2022/06/04 00:23:54;;;;;;;6.10;5.70;;;;;;;15.04;100.00;97091.91;4913505;29;20238;-59
2022/06/04 00:26:23;;;;;;;6.33;5.90;;;;;;;15.06;100.00;97089.84;4891905;29;20574;-53
2022/06/04 00:28:51;;;;;;;5.47;5.03;;;;;;;15.01;100.00;97092.34;4876762;29;20211;-52
2022/06/04 00:31:19;;;;;;;6.37;5.93;;;;;;;14.92;100.00;97093.63;4909921;29;20306;-56
2022/06/04 00:33:47;;;;;;;6.33;5.73;;;;;;;14.97;100.00;97097.31;4908237;29;20734;-53
2022/06/04 00:36:17;;;;;;;4.93;4.63;;;;;;;14.75;100.00;97100.28;4879826;29;20319;-53
2022/06/04 00:38:45;;;;;;;5.13;4.80;;;;;;;14.64;100.00;97100.94;4908755;29;20564;-55
2022/06/04 00:41:23;;;;;;;5.30;5.00;;;;;;;14.62;100.00;97098.47;4896251;29;20247;-58
2022/06/04 00:44:02;;;;;;;6.13;5.73;;;;;;;14.58;100.00;97113.25;4873472;29;20241;-56
2022/06/04 00:47:04;;;;;;;5.37;5.03;;;;;;;14.50;100.00;97105.50;4912127;29;20511;-54
2022/06/04 00:49:32;;;;;;;5.83;5.43;;;;;;;14.55;100.00;97094.19;4853654;29;20378;-57
2022/06/04 00:52:07;;;;;;;6.10;5.70;;;;;;;14.42;100.00;97095.06;4823162;29;20233;-58
2022/06/04 00:54:36;;;;;;;6.17;5.77;;;;;;;14.50;100.00;97092.16;4853264;29;20252;-56
2022/06/04 00:57:46;;;;;;;5.53;5.20;;;;;;;14.54;100.00;97095.22;4837583;29;20213;-55
2022/06/04 01:00:17;;;;;;;6.43;5.83;;;;;;;14.58;100.00;97083.91;4794572;29;20210;-52
2022/06/04 01:02:56;;;;;;;5.77;5.40;;;;;;;14.63;100.00;97091.28;4833438;29;20257;-51
2022/06/04 01:05:30;;;;;;;5.57;5.27;;;;;;;14.49;100.00;97095.88;4838100;29;21002;-56
2022/06/04 01:08:21;;;;;;;6.00;5.60;;;;;;;14.46;100.00;97101.63;4807251;29;20253;-56
2022/06/04 01:10:57;;;;;;;6.03;5.53;;;;;;;14.31;100.00;97093.88;4834618;29;20806;-58
2022/06/04 01:13:44;;;;;;;6.07;5.67;;;;;;;14.38;100.00;97093.84;4823514;29;20277;-54
2022/06/04 01:16:17;;;;;;;6.70;5.83;;;;;;;14.33;100.00;97097.94;4798012;29;20244;-58
2022/06/04 01:18:53;;;;;;;6.37;5.77;;;;;;;14.33;100.00;97094.47;4837715;29;20210;-54
2022/06/04 01:21:25;;;;;;;6.73;6.23;;;;;;;14.34;100.00;97109.44;4835913;29;20393;-53
2022/06/04 01:24:30;;;;;;;6.23;5.83;;;;;;;14.25;100.00;97114.19;4817988;29;20332;-58
2022/06/04 01:27:18;;;;;;;7.13;5.80;;;;;;;14.18;100.00;97111.53;4852020;29;20475;-59
2022/06/04 01:29:50;;;;;;;6.20;5.80;;;;;;;14.14;100.00;97115.63;4858905;29;20212;-57
2022/06/04 01:32:24;;;;;;;6.93;6.43;;;;;;;14.09;100.00;97112.78;4817661;29;20248;-55
2022/06/04 01:34:59;;;;;;;7.10;6.17;;;;;;;14.23;100.00;97107.44;4898442;29;20303;-56
2022/06/04 01:37:32;;;;;;;6.87;6.33;;;;;;;14.36;100.00;97109.22;4913806;29;20712;-54
2022/06/04 01:42:50;;;;;;;6.70;6.20;;;;;;;14.08;100.00;97105.81;4917887;29;20262;-53
2022/06/04 01:45:20;;;;;;;7.10;6.47;;;;;;;14.05;100.00;97103.56;4893486;29;20330;-53
2022/06/04 01:47:49;;;;;;;6.97;6.30;;;;;;;13.99;100.00;97104.41;4876845;29;20378;-53
2022/06/04 01:50:19;;;;;;;7.33;6.73;;;;;;;14.08;100.00;97105.81;4916287;28;20757;-54
2022/06/04 01:52:48;;;;;;;6.43;5.93;;;;;;;14.03;100.00;97114.44;4916734;29;20809;-53
2022/06/04 01:55:20;;;;;;;7.73;6.23;;;;;;;13.95;100.00;97113.84;4881496;29;20737;-55
2022/06/04 01:57:55;;;;;;;6.13;5.67;;;;;;;14.01;100.00;97102.34;4914239;29;20287;-59
2022/06/04 02:00:25;;;;;;;7.10;6.50;;;;;;;13.99;100.00;97115.88;4898438;29;20495;-55
2022/06/04 02:02:56;;;;;;;7.30;6.80;;;;;;;13.97;100.00;97115.25;4874623;29;20243;-58
2022/06/04 02:05:26;;;;;;;6.87;6.23;;;;;;;13.96;100.00;97110.16;4912752;29;20431;-54
2022/06/04 02:07:55;;;;;;;7.47;6.87;;;;;;;14.00;100.00;97108.69;4909690;29;20270;-54
2022/06/04 02:10:27;;;;;;;7.87;7.27;;;;;;;13.94;100.00;97113.00;4880880;29;20421;-55
2022/06/04 02:12:59;;;;;;;7.60;7.00;;;;;;;13.90;100.00;97093.16;4910830;29;20315;-59
2022/06/04 02:15:31;;;;;;;7.80;7.13;;;;;;;13.86;100.00;97087.44;4897417;29;20350;-50
2022/06/04 02:18:00;;;;;;;7.70;7.00;;;;;;;13.88;100.00;97092.53;4879296;29;20243;-59
2022/06/04 02:20:28;;;;;;;7.47;6.97;;;;;;;13.88;100.00;97080.06;4889203;29;20216;-58
2022/06/04 02:22:57;;;;;;;8.63;7.87;;;;;;;13.89;100.00;97087.00;4911787;29;20286;-59
2022/06/04 02:25:25;;;;;;;7.70;7.10;;;;;;;13.96;100.00;97086.19;4877312;29;20265;-59
2022/06/04 02:27:53;;;;;;;8.40;7.40;;;;;;;13.86;100.00;97095.41;4916188;29;20359;-59
2022/06/04 02:30:26;;;;;;;8.07;7.47;;;;;;;13.95;100.00;97085.34;4886614;29;20216;-58
2022/06/04 02:33:03;;;;;;;8.33;7.40;;;;;;;13.86;100.00;97078.59;4868065;29;20338;-57
2022/06/04 02:35:36;;;;;;;7.50;6.90;;;;;;;13.84;100.00;97081.50;4914138;29;20430;-54
2022/06/04 02:38:12;;;;;;;7.47;6.87;;;;;;;13.83;100.00;97082.53;4915857;29;20244;-57
2022/06/04 02:40:43;;;;;;;8.07;7.47;;;;;;;13.89;100.00;97087.00;4917528;29;20863;-51
2022/06/04 02:43:16;;;;;;;8.57;7.67;;;;;;;13.76;100.00;97089.69;4875761;29;20383;-59
2022/06/04 02:45:52;;;;;;;8.90;8.10;;;;;;;13.78;100.00;97066.31;4895017;29;20496;-54
2022/06/04 02:48:24;;;;;;;8.30;7.70;;;;;;;13.88;100.00;97068.56;4868454;29;20509;-51
2022/06/04 02:50:57;;;;;;;8.20;7.50;;;;;;;13.77;100.00;97069.22;4904396;29;20306;-56
2022/06/04 02:53:26;;;;;;;8.40;7.77;;;;;;;13.72;100.00;97083.13;4899690;29;20235;-58
2022/06/04 02:55:57;;;;;;;8.60;7.97;;;;;;;13.80;100.00;97084.75;4912203;29;20310;-58
2022/06/04 02:58:27;;;;;;;8.47;7.73;;;;;;;13.89;100.00;97073.69;4878418;29;20274;-59
2022/06/04 03:00:58;;;;;;;10.47;9.57;;;;;;;13.85;100.00;97074.31;4908829;29;20298;-60
2022/06/04 03:03:26;;;;;;;11.07;9.97;;;;;;;13.97;100.00;97063.84;4864993;28;20466;-59
2022/06/04 03:05:58;;;;;;;10.43;9.63;;;;;;;13.96;100.00;97072.84;4910671;29;20276;-58
2022/06/04 03:08:27;;;;;;;11.00;10.10;;;;;;;13.86;100.00;97081.28;4913450;29;20611;-56
2022/06/04 03:10:55;;;;;;;10.23;9.43;;;;;;;13.60;100.00;97081.09;4900449;29;20389;-59
2022/06/04 03:13:24;;;;;;;10.17;9.37;;;;;;;13.65;100.00;97090.31;4863456;29;20594;-55
2022/06/04 03:15:53;;;;;;;11.30;10.40;;;;;;;13.62;100.00;97090.72;4912721;29;20249;-59
2022/06/04 03:18:23;;;;;;;11.00;10.10;;;;;;;13.68;100.00;97097.88;4890801;29;20629;-57
2022/06/04 03:20:51;;;;;;;11.13;10.30;;;;;;;13.69;100.00;97099.53;4875602;28;20419;-59
2022/06/04 03:23:19;;;;;;;10.80;9.90;;;;;;;13.79;100.00;97091.91;4910272;29;20311;-55
2022/06/04 03:25:47;;;;;;;9.13;8.43;;;;;;;13.84;100.00;97091.31;4920911;29;20323;-56
2022/06/04 03:28:15;;;;;;;10.87;9.97;;;;;;;13.96;100.00;97088.84;4875007;29;20607;-59
2022/06/04 03:30:43;;;;;;;10.73;9.63;;;;;;;14.13;100.00;97092.69;4913091;29;20645;-55
2022/06/04 03:33:11;;;;;;;11.67;10.43;;;;;;;14.16;100.00;97094.94;4889507;29;20314;-54
2022/06/04 03:35:42;;;;;;;11.40;10.50;;;;;;;14.22;100.00;97090.63;4875776;29;20237;-56
2022/06/04 03:38:10;;;;;;;11.80;10.83;;;;;;;14.26;100.00;97099.81;4907451;29;20239;-57
2022/06/04 03:40:39;;;;;;;12.43;11.43;;;;;;;14.32;100.00;97098.19;4918492;29;20286;-60
2022/06/04 03:43:07;;;;;;;12.07;10.97;;;;;;;14.26;100.00;97102.50;4873492;29;20283;-56
2022/06/04 03:45:36;;;;;;;11.87;10.77;;;;;;;14.35;100.00;97100.41;4910724;29;20599;-56
2022/06/04 03:48:05;;;;;;;12.50;11.40;;;;;;;14.25;100.00;97100.84;4897257;29;20239;-57
2022/06/04 03:50:33;;;;;;;13.90;12.50;;;;;;;14.40;100.00;97108.59;4878025;28;20298;-54
2022/06/04 03:53:03;;;;;;;14.07;12.67;;;;;;;14.42;100.00;97103.06;4906799;29;20388;-58
2022/06/04 03:55:31;;;;;;;17.43;12.23;;;;;;;14.38;100.00;97110.66;4914581;29;20279;-57
2022/06/04 03:57:59;;;;;;;15.00;13.50;;;;;;;14.52;100.00;97113.25;4912509;29;20219;-59
2022/06/04 04:00:30;;;;;;;15.77;14.23;;;;;;;14.44;100.00;97104.47;4882402;29;20766;-62
2022/06/04 04:03:08;;;;;;;15.13;13.63;;;;;;;14.53;100.00;97106.91;4891802;29;20342;-60
2022/06/04 04:05:39;;;;;;;15.10;13.50;;;;;;;14.40;100.00;97113.13;4869009;29;20537;-57
2022/06/04 04:08:10;;;;;;;15.70;13.70;;;;;;;14.51;100.00;97114.28;4909289;29;20708;-55
2022/06/04 04:10:39;;;;;;;21.17;13.67;;;;;;;14.51;100.00;97109.78;4915046;29;20628;-59
2022/06/04 04:13:08;;;;;;;17.70;14.17;;;;;;;14.42;100.00;97111.88;4913082;29;20746;-52
2022/06/04 04:15:36;;;;;;;16.20;13.73;;;;;;;14.31;100.00;97100.00;4878483;29;20310;-55
2022/06/04 04:18:06;;;;;;;14.90;12.30;;;;;;;14.46;100.00;97107.75;4894307;29;20299;-58
2022/06/04 04:20:41;;;;;;;16.07;14.47;;;;;;;14.60;100.00;97105.06;4872849;29;20267;-54
2022/06/04 04:23:10;;;;;;;15.70;14.20;;;;;;;14.72;100.00;97100.72;4908959;28;20941;-58
2022/06/04 04:25:39;;;;;;;16.37;14.87;;;;;;;15.05;100.00;97102.38;4914651;29;20729;-52
2022/06/04 04:28:08;;;;;;;16.20;14.80;;;;;;;15.15;100.00;97104.59;4909352;29;20679;-56
2022/06/04 04:30:37;;;;;;;16.77;15.13;;;;;;;15.06;100.00;97100.53;4877532;29;20751;-54
2022/06/04 04:33:06;;;;;;;15.67;14.07;;;;;;;15.19;100.00;97104.97;4883280;29;22113;-54
2022/06/04 04:35:36;;;;;;;15.67;14.07;;;;;;;15.19;100.00;97105.78;4887558;29;20310;-56
2022/06/04 04:38:05;;;;;;;16.73;15.00;;;;;;;15.12;100.00;97104.19;4871147;29;20784;-55
2022/06/04 04:40:35;;;;;;;15.83;14.33;;;;;;;15.39;100.00;97096.00;4886501;29;20297;-59
2022/06/04 04:43:03;;;;;;;20.07;17.50;;;;;;;15.53;100.00;97096.69;4915846;29;20318;-59
2022/06/04 04:45:32;;;;;;;17.30;14.57;;;;;;;15.65;100.00;97094.13;4878674;29;20242;-56
2022/06/04 04:48:00;;;;;;;19.37;17.03;;;;;;;15.67;100.00;97100.91;4886896;29;20218;-55
2022/06/04 04:50:31;;;;;;;19.75;17.65;;;;;;;15.70;100.00;97105.81;4886793;29;20575;-59
2022/06/04 04:53:00;;;;;;;17.60;15.80;;;;;;;15.82;100.00;97105.09;4874122;28;20346;-57
2022/06/04 04:55:31;;;;;;;19.63;15.80;;;;;;;15.86;100.00;97103.59;4911625;29;20302;-56
2022/06/04 04:58:01;;;;;;;16.63;14.97;;;;;;;15.96;100.00;97092.44;4919922;29;20270;-56
2022/06/04 05:00:30;;;;;;;17.43;15.80;;;;;;;16.14;100.00;97088.97;4889464;29;20399;-58
2022/06/04 05:02:58;;;;;;;16.00;14.43;;;;;;;15.89;100.00;97097.84;4885223;29;20475;-52
2022/06/04 05:05:27;;;;;;;16.10;14.53;;;;;;;16.14;100.00;97095.16;4894784;29;20227;-58
2022/06/04 05:07:55;;;;;;;15.30;13.87;;;;;;;16.27;100.00;97098.72;4872693;29;20710;-55
2022/06/04 05:10:24;;;;;;;15.97;13.67;;;;;;;16.55;100.00;97097.38;4911843;29;20274;-58
2022/06/04 05:12:53;;;;;;;15.23;13.87;;;;;;;16.56;100.00;97101.69;4912508;29;20231;-55
2022/06/04 05:15:23;;;;;;;15.10;13.80;;;;;;;16.75;100.00;97091.78;4910046;29;20358;-58
2022/06/04 05:17:51;;;;;;;15.40;13.90;;;;;;;16.66;100.00;97101.97;4854884;29;23308;-54
2022/06/04 05:20:20;;;;;;;15.13;13.73;;;;;;;16.76;100.00;97091.53;4888456;29;20218;-57
2022/06/04 05:22:48;;;;;;;16.90;15.23;;;;;;;16.49;100.00;97097.25;4870000;29;21101;-55
2022/06/04 05:25:16;;;;;;;15.60;13.40;;;;;;;16.87;100.00;97091.81;4915629;29;20291;-57
2022/06/04 05:27:44;;;;;;;13.77;12.50;;;;;;;16.85;100.00;97091.22;4913438;29;20239;-55
2022/06/04 05:30:13;;;;;;;14.43;13.03;;;;;;;16.77;100.00;97095.84;4918924;29;20338;-51
2022/06/04 05:32:42;;;;;;;13.00;11.93;;;;;;;16.76;100.00;97099.56;4879214;29;20322;-49
2022/06/04 05:35:11;;;;;;;12.20;11.17;;;;;;;16.42;100.00;97101.81;4892497;29;20239;-51
2022/06/04 05:37:39;;;;;;;11.83;10.73;;;;;;;16.36;100.00;97097.38;4890232;29;20430;-57
2022/06/04 05:40:09;;;;;;;11.57;10.53;;;;;;;16.57;100.00;97103.31;4878538;29;20322;-56
2022/06/04 05:42:37;;;;;;;12.43;11.23;;;;;;;16.55;100.00;97102.72;4913938;29;20423;-56
2022/06/04 05:45:06;;;;;;;12.07;11.07;;;;;;;16.62;100.00;97109.59;4890079;29;20294;-61
2022/06/04 05:47:34;;;;;;;13.67;12.47;;;;;;;16.53;100.00;97120.84;4882447;29;20216;-57
2022/06/04 05:50:05;;;;;;;12.57;11.47;;;;;;;16.75;100.00;97116.66;4889995;29;20882;-57
2022/06/04 05:52:33;;;;;;;14.03;12.80;;;;;;;16.73;100.00;97121.41;4895673;29;20319;-53
2022/06/04 05:55:01;;;;;;;13.13;12.07;;;;;;;16.69;100.00;97128.25;4875642;29;20244;-58
2022/06/04 05:57:29;;;;;;;14.10;12.80;;;;;;;16.86;100.00;97123.09;4907974;29;20212;-57
2022/06/04 05:59:57;;;;;;;13.30;12.20;;;;;;;16.89;100.00;97128.00;4916933;29;20326;-61
2022/06/04 06:02:26;;;;;;;14.97;13.50;;;;;;;16.90;100.00;97134.19;4870081;29;20613;-60
2022/06/04 06:04:54;;;;;;;13.53;12.23;;;;;;;17.05;100.00;97137.28;4899827;29;20611;-56
2022/06/04 06:07:23;;;;;;;15.00;13.40;;;;;;;17.26;100.00;97132.50;4901853;29;20311;-58
2022/06/04 06:09:52;;;;;;;13.43;12.37;;;;;;;17.33;100.00;97127.84;4880941;29;20316;-57
2022/06/04 06:12:20;;;;;;;14.30;12.87;;;;;;;17.23;100.00;97140.94;4910803;29;20322;-60
2022/06/04 06:14:48;;;;;;;14.40;12.97;;;;;;;17.17;100.00;97139.19;4912596;29;20909;-58
2022/06/04 06:17:16;;;;;;;14.07;12.77;;;;;;;17.70;100.00;97140.25;4915229;29;20224;-61
2022/06/04 06:19:44;;;;;;;13.40;12.23;;;;;;;18.06;100.00;97134.97;4881280;29;20366;-55
2022/06/04 06:22:13;;;;;;;14.53;13.23;;;;;;;17.97;100.00;97130.94;4906056;29;20745;-58
2022/06/04 06:24:42;;;;;;;14.17;12.87;;;;;;;18.14;100.00;97131.09;4902376;29;20355;-61
2022/06/04 06:27:10;;;;;;;14.10;12.83;;;;;;;18.24;100.00;97120.63;4881697;29;20606;-58
2022/06/04 06:29:39;;;;;;;13.77;12.57;;;;;;;18.16;100.00;97134.34;4911930;29;20211;-59
2022/06/04 06:32:08;;;;;;;14.33;13.03;;;;;;;17.71;100.00;97141.09;4918194;29;20314;-60
2022/06/04 06:34:36;;;;;;;13.97;12.57;;;;;;;17.78;100.00;97133.75;4876843;29;20239;-60
2022/06/04 06:37:04;;;;;;;13.70;12.50;;;;;;;17.93;100.00;97136.78;4893846;29;20767;-58
2022/06/04 06:39:33;;;;;;;14.70;13.47;;;;;;;18.03;100.00;97140.78;4893715;29;20216;-55
2022/06/04 06:42:02;;;;;;;16.20;14.87;;;;;;;18.23;100.00;97146.59;4879663;29;20235;-58
2022/06/04 06:44:30;;;;;;;14.90;13.50;;;;;;;18.47;100.00;97151.13;4909197;29;20933;-60
2022/06/04 06:46:59;;;;;;;14.53;13.33;;;;;;;18.82;100.00;97139.50;4913995;29;20301;-58
2022/06/04 06:49:30;;;;;;;12.93;11.73;;;;;;;19.31;100.00;97151.69;4876010;29;20391;-55
2022/06/04 06:52:00;;;;;;;13.03;11.93;;;;;;;19.13;100.00;97153.53;4913226;28;20878;-55
2022/06/04 06:54:31;;;;;;;11.70;10.70;;;;;;;19.14;100.00;97159.75;4901286;29;20486;-54
2022/06/04 06:56:59;;;;;;;11.93;10.97;;;;;;;19.35;100.00;97166.31;4879742;29;20219;-52
2022/06/04 06:59:30;;;;;;;12.03;11.13;;;;;;;19.44;100.00;97156.78;4908905;29;20207;-57
2022/06/04 07:01:59;;;;;;;12.80;11.80;;;;;;;19.09;100.00;97152.41;4913987;29;20326;-55
2022/06/04 07:04:28;;;;;;;12.60;11.63;;;;;;;19.60;100.00;97152.50;4879161;29;20292;-57
2022/06/04 07:06:58;;;;;;;12.47;11.27;;;;;;;19.52;100.00;97152.91;4915994;29;20683;-59
2022/06/04 07:09:28;;;;;;;13.27;12.17;;;;;;;19.65;100.00;97160.63;4900654;29;20599;-57
2022/06/04 07:11:57;;;;;;;13.10;12.00;;;;;;;20.20;100.00;97155.59;4877647;29;20523;-60
2022/06/04 07:14:25;;;;;;;12.40;11.40;;;;;;;20.54;100.00;97160.09;4910313;29;20212;-57
2022/06/04 07:16:56;;;;;;;11.90;11.00;;;;;;;21.54;100.00;97167.16;4915003;29;20303;-57
2022/06/04 07:19:26;;;;;;;13.07;11.97;;;;;;;21.85;100.00;97155.84;4879357;29;20227;-59
2022/06/04 07:21:55;;;;;;;12.27;11.23;;;;;;;21.59;100.00;97147.53;4912490;28;20626;-58
2022/06/04 07:24:23;;;;;;;11.63;10.73;;;;;;;22.09;100.00;97166.25;4896354;29;20290;-59
2022/06/04 07:26:52;;;;;;;11.63;10.83;;;;;;;22.35;100.00;97169.97;4878481;29;20618;-56
2022/06/04 07:29:21;;;;;;;11.37;10.37;;;;;;;22.44;100.00;97170.25;4907147;29;20216;-59
2022/06/04 07:31:49;;;;;;;11.90;11.10;;;;;;;22.11;100.00;97167.66;4910568;29;20458;-54
2022/06/04 07:34:19;;;;;;;13.40;12.40;;;;;;;21.80;100.00;97172.00;4892389;29;20222;-58
2022/06/04 07:36:51;;;;;;;11.20;10.30;;;;;;;22.33;100.00;97172.09;4912070;29;20199;-53
2022/06/04 07:39:20;;;;;;;11.33;10.43;;;;;;;21.92;100.00;97178.03;4902342;29;20422;-58
2022/06/04 07:41:53;;;;;;;11.27;10.37;;;;;;;22.07;100.00;97174.63;4907440;29;20240;-59
2022/06/04 07:44:23;;;;;;;11.70;10.60;;;;;;;21.67;100.00;97168.63;4875198;29;20628;-59
2022/06/04 07:46:52;;;;;;;12.33;11.40;;;;;;;21.67;100.00;97162.44;4915222;29;20716;-60
2022/06/04 07:49:22;;;;;;;11.37;10.47;;;;;;;21.53;100.00;97170.91;4910049;29;20750;-60
2022/06/04 07:51:52;;;;;;;11.60;10.60;;;;;;;21.37;100.00;97164.56;4883535;28;20358;-58
2022/06/04 07:54:21;;;;;;;12.03;11.13;;;;;;;21.74;100.00;97170.31;4896602;29;20211;-59
2022/06/04 07:56:50;;;;;;;11.43;10.63;;;;;;;22.17;100.00;97176.59;4912502;29;20261;-61
2022/06/04 07:59:19;;;;;;;12.93;12.03;;;;;;;21.91;100.00;97181.78;4876494;29;20222;-58
2022/06/04 08:01:47;;;;;;;12.77;11.70;;;;;;;21.68;100.00;97186.44;4911420;29;20288;-58
2022/06/04 08:04:15;;;;;;;12.77;11.63;;;;;;;22.12;100.00;97196.25;4910925;29;20250;-61
2022/06/04 08:06:45;;;;;;;11.90;10.97;;;;;;;22.15;100.00;97197.59;4884930;29;21201;-63
2022/06/04 08:09:13;;;;;;;11.77;10.87;;;;;;;21.96;100.00;97200.72;4913006;29;20215;-61
2022/06/04 08:11:42;;;;;;;12.83;11.83;;;;;;;22.24;100.00;97201.47;4899513;29;20466;-62
2022/06/04 08:14:14;;;;;;;11.10;10.27;;;;;;;23.00;100.00;97204.06;4875565;29;20791;-61
2022/06/04 08:16:44;;;;;;;19.33;17.63;;;;;;;22.91;100.00;97208.31;4909227;29;20343;-58
2022/06/04 08:19:13;;;;;;;14.93;13.50;;;;;;;22.76;100.00;97201.78;4913113;29;20723;-57
2022/06/04 08:21:42;;;;;;;13.53;12.37;;;;;;;21.86;100.00;97189.84;4906642;29;20326;-60
2022/06/04 08:24:13;;;;;;;13.40;12.40;;;;;;;21.66;100.00;97190.47;4880101;29;20870;-59
2022/06/04 08:26:42;;;;;;;14.77;13.50;;;;;;;21.19;100.00;97187.28;4894626;29;20562;-61
2022/06/04 08:29:11;;;;;;;12.03;11.13;;;;;;;21.13;100.00;97188.28;4875294;29;20307;-58
2022/06/04 08:31:39;;;;;;;13.10;11.97;;;;;;;21.13;100.00;97193.66;4903412;29;20326;-57
2022/06/04 08:34:08;;;;;;;12.13;10.97;;;;;;;21.24;100.00;97190.03;4910598;29;20802;-59
2022/06/04 08:36:36;;;;;;;11.67;10.87;;;;;;;21.24;100.00;97198.13;4910285;29;20323;-55
2022/06/04 08:39:05;;;;;;;11.93;11.03;;;;;;;21.25;100.00;97186.28;4878061;29;20661;-59
2022/06/04 08:41:57;;;;;;;12.47;11.53;;;;;;;21.32;100.00;97187.97;4888927;29;20295;-58
2022/06/04 08:44:29;;;;;;;11.20;10.40;;;;;;;21.27;100.00;97185.22;4871118;29;20966;-58
2022/06/04 08:47:00;;;;;;;12.10;11.00;;;;;;;21.71;100.00;97192.38;4909282;29;20235;-60
2022/06/04 08:49:32;;;;;;;11.80;10.97;;;;;;;21.94;100.00;97192.06;4909881;29;20226;-58
2022/06/04 08:52:02;;;;;;;11.33;10.47;;;;;;;22.09;100.00;97194.06;4912647;29;20334;-56
2022/06/04 08:57:35;;;;;;;10.03;9.30;;;;;;;23.14;100.00;97204.38;4890018;29;20540;-56
2022/06/04 09:00:09;;;;;;;12.10;11.23;;;;;;;23.42;100.00;97197.72;4876008;29;20211;-57
2022/06/04 09:03:01;;;;;;;10.90;10.03;;;;;;;23.15;100.00;97203.31;4909156;29;20531;-57
2022/06/04 09:05:39;;;;;;;11.20;10.30;;;;;;;23.83;100.00;97199.66;4910917;29;20533;-59
2022/06/04 09:08:13;;;;;;;10.33;9.63;;;;;;;24.39;100.00;97192.63;4915861;29;20239;-60
2022/06/04 09:10:45;;;;;;;11.63;10.63;;;;;;;24.53;100.00;97181.22;4876807;29;20424;-60
2022/06/04 09:13:17;;;;;;;10.47;9.70;;;;;;;25.14;100.00;97191.03;4895310;29;20240;-59
2022/06/04 09:15:47;;;;;;;10.17;9.27;;;;;;;25.09;100.00;97191.06;4887055;29;24079;-58
2022/06/04 09:18:18;;;;;;;9.97;9.30;;;;;;;24.93;100.00;97190.31;4911745;29;20648;-57
2022/06/04 09:20:55;;;;;;;10.03;9.33;;;;;;;24.61;100.00;97182.56;4910917;29;20271;-56
2022/06/04 09:23:30;;;;;;;8.43;7.83;;;;;;;25.37;100.00;97191.47;4907213;29;20639;-60
2022/06/04 09:26:01;;;;;;;8.13;7.57;;;;;;;25.17;100.00;97189.69;4882165;28;20207;-56
2022/06/04 09:28:38;;;;;;;9.33;8.53;;;;;;;24.99;100.00;97177.56;4892747;29;20443;-58
2022/06/04 09:31:16;;;;;;;9.23;8.47;;;;;;;24.83;100.00;97180.34;4878035;29;20244;-55
2022/06/04 09:33:56;;;;;;;8.03;7.53;;;;;;;25.18;100.00;97175.03;4914302;29;20317;-57
2022/06/04 09:36:26;;;;;;;8.37;7.67;;;;;;;24.93;100.00;97179.47;4917252;29;20218;-57
2022/06/04 09:38:59;;;;;;;7.90;7.30;;;;;;;24.90;100.00;97190.09;4916615;29;20307;-59
2022/06/04 09:41:29;;;;;;;8.67;7.97;;;;;;;24.59;100.00;97190.16;4879423;29;21009;-56
2022/06/04 09:44:05;;;;;;;8.10;7.50;;;;;;;24.25;100.00;97178.03;4917790;29;20235;-55
2022/06/04 09:46:34;;;;;;;7.57;7.07;;;;;;;24.37;100.00;97186.69;4861050;29;20362;-58
2022/06/04 09:49:13;;;;;;;7.50;7.03;;;;;;;24.04;100.00;97178.06;4909546;29;20358;-55
2022/06/04 09:51:44;;;;;;;8.03;7.47;;;;;;;23.87;100.00;97185.63;4912159;29;20776;-58
2022/06/04 09:54:24;;;;;;;11.30;8.97;;;;;;;23.81;100.00;97185.59;4914679;29;20423;-58
2022/06/04 09:56:55;;;;;;;8.83;8.03;;;;;;;23.42;100.00;97181.50;4886470;29;20287;-60
2022/06/04 09:59:28;;;;;;;8.73;7.83;;;;;;;23.49;100.00;97185.84;4912806;29;20216;-56
2022/06/04 10:01:59;;;;;;;8.33;7.73;;;;;;;23.51;100.00;97191.78;4860035;29;20503;-55
2022/06/04 10:04:39;;;;;;;7.90;7.40;;;;;;;23.51;100.00;97178.28;4890197;29;20936;-55
2022/06/04 10:07:09;;;;;;;8.43;7.83;;;;;;;23.73;100.00;97178.03;4875677;29;20302;-54
2022/06/04 10:09:56;;;;;;;8.40;7.80;;;;;;;24.31;100.00;97171.53;4913647;29;20366;-53
2022/06/04 10:15:31;;;;;;;8.30;7.70;;;;;;;24.19;100.00;97160.16;4870945;28;20570;-59
2022/06/04 10:18:02;;;;;;;7.70;7.10;;;;;;;24.82;100.00;97154.34;4876102;29;20223;-60
2022/06/04 10:20:30;;;;;;;8.90;8.00;;;;;;;24.74;100.00;97154.06;4899641;29;20231;-52
2022/06/04 10:22:58;;;;;;;8.40;7.83;;;;;;;24.89;100.00;97156.75;4896276;29;20406;-56
2022/06/04 10:25:33;;;;;;;7.90;7.30;;;;;;;24.61;100.00;97145.44;4911135;29;20305;-56
2022/06/04 10:28:10;;;;;;;8.33;7.73;;;;;;;24.68;100.00;97127.00;4868609;29;20732;-59
2022/06/04 10:30:48;;;;;;;7.67;7.17;;;;;;;24.84;100.00;97132.38;4914040;29;20759;-54
2022/06/04 10:33:24;;;;;;;6.60;6.10;;;;;;;25.28;100.00;97133.50;4867464;29;20907;-59
2022/06/04 10:36:02;;;;;;;8.90;8.30;;;;;;;25.44;100.00;97140.44;4895011;29;20698;-57
2022/06/04 10:38:41;;;;;;;7.70;7.10;;;;;;;25.66;100.00;97143.84;4860211;29;20314;-50
2022/06/04 10:41:14;;;;;;;7.10;6.60;;;;;;;25.59;100.00;97141.47;4906995;29;20408;-55
2022/06/04 10:44:07;;;;;;;7.07;6.47;;;;;;;25.25;100.00;97137.56;4881552;29;20235;-59
2022/06/04 10:46:42;;;;;;;8.40;7.80;;;;;;;25.12;100.00;97127.38;4913501;29;20703;-57
2022/06/04 10:49:29;;;;;;;8.27;7.57;;;;;;;24.92;100.00;97136.41;4894552;29;20654;-52
2022/06/04 10:52:02;;;;;;;7.40;6.90;;;;;;;25.13;100.00;97137.13;4876051;28;20425;-55
2022/06/04 10:54:37;;;;;;;8.03;7.53;;;;;;;25.94;100.00;97133.31;4902139;29;20577;-56
2022/06/04 10:57:14;;;;;;;9.80;9.03;;;;;;;26.17;100.00;97133.66;4908547;29;20371;-55
2022/06/04 10:59:48;;;;;;;10.17;9.27;;;;;;;26.35;100.00;97132.13;4884959;28;20250;-58
2022/06/04 11:02:22;;;;;;;8.93;8.10;;;;;;;26.69;100.00;97133.88;4875766;29;20819;-55
2022/06/04 11:04:54;;;;;;;8.53;7.83;;;;;;;27.18;100.00;97133.84;4901075;29;20623;-59
2022/06/04 11:07:40;;;;;;;8.30;7.70;;;;;;;27.00;100.00;97145.22;4897066;29;20215;-57
2022/06/04 11:10:13;;;;;;;8.20;7.63;;;;;;;27.04;100.00;97150.06;4900715;29;20326;-55
2022/06/04 11:12:45;;;;;;;7.83;7.33;;;;;;;27.65;100.00;97142.94;4912760;29;20299;-57
2022/06/04 11:15:17;;;;;;;8.10;7.60;;;;;;;27.27;100.00;97148.41;4907636;29;20308;-55
2022/06/04 11:17:50;;;;;;;7.73;7.20;;;;;;;27.56;100.00;97150.19;4860938;28;20221;-59
2022/06/04 11:20:22;;;;;;;6.90;6.40;;;;;;;27.32;100.00;97145.59;4895230;29;20220;-56
2022/06/04 11:22:58;;;;;;;6.83;6.40;;;;;;;27.19;100.00;97146.34;4889590;29;20489;-58
2022/06/04 11:25:29;;;;;;;7.33;6.83;;;;;;;27.51;100.00;97145.63;4894688;29;20249;-55
2022/06/04 11:27:59;;;;;;;6.60;6.20;;;;;;;27.95;96.02;97143.56;4894602;29;20301;-58
2022/06/04 11:30:36;;;;;;;6.50;6.00;;;;;;;27.74;86.26;97143.88;4909863;29;20553;-58
2022/06/04 11:33:13;;;;;;;6.97;6.57;;;;;;;27.81;100.00;97139.97;4877827;29;20816;-52
2022/06/04 11:35:44;;;;;;;6.33;5.87;;;;;;;28.55;87.90;97141.13;4870915;29;20582;-56
2022/06/04 11:38:42;;;;;;;5.97;5.63;;;;;;;28.84;89.02;97135.38;4913282;29;20227;-58
2022/06/04 11:41:19;;;;;;;6.93;5.73;;;;;;;28.45;88.97;97133.97;4901868;29;20305;-54
2022/06/04 11:44:05;;;;;;;5.33;4.93;;;;;;;27.66;86.88;97130.16;4897884;29;20965;-52
2022/06/04 11:46:41;;;;;;;5.27;4.87;;;;;;;26.63;92.73;97135.03;4891687;29;20439;-54
2022/06/04 11:49:22;;;;;;;4.53;4.13;;;;;;;26.35;90.12;97134.84;4850893;28;20237;-58
2022/06/04 11:52:05;;;;;;;3.83;3.63;;;;;;;25.91;88.89;97136.59;4894676;29;20211;-56